createdAt,value
2019-03-04T00:01:51.253Z,1.00
2019-03-04T00:11:51.932Z,1.00
2019-03-04T00:21:52.792Z,0.97
2019-03-04T00:31:55.422Z,1.07
2019-03-04T00:41:56.129Z,0.80
2019-03-04T00:51:56.993Z,1.10
2019-03-04T01:01:57.935Z,1.17
2019-03-04T01:11:58.942Z,0.93
2019-03-04T01:21:59.722Z,1.00
2019-03-04T01:32:00.803Z,0.70
2019-03-04T01:42:01.947Z,0.70
2019-03-04T01:52:03.663Z,0.50
2019-03-04T02:02:04.503Z,0.30
2019-03-04T02:12:05.338Z,0.30
2019-03-04T02:22:06.044Z,0.20
2019-03-04T02:32:06.947Z,0.30
2019-03-04T02:42:07.718Z,0.40
2019-03-04T02:52:08.456Z,0.20
2019-03-04T03:02:09.240Z,0.30
2019-03-04T03:12:10.207Z,0.33
2019-03-04T03:22:12.071Z,0.40
2019-03-04T03:32:12.815Z,0.40
2019-03-04T03:42:13.449Z,0.50
2019-03-04T03:52:14.338Z,0.50
2019-03-04T04:02:15.213Z,0.70
2019-03-04T04:12:16.304Z,0.67
2019-03-04T04:22:17.040Z,0.60
2019-03-04T04:32:18.042Z,0.60
2019-03-04T04:42:19.015Z,0.50
2019-03-04T04:52:19.996Z,0.97
2019-03-04T05:02:21.036Z,0.80
2019-03-04T05:12:21.720Z,0.77
2019-03-04T05:22:22.650Z,1.00
2019-03-04T05:32:23.549Z,1.10
2019-03-04T05:42:24.628Z,0.80
2019-03-04T05:52:25.587Z,0.90
2019-03-04T06:02:26.493Z,0.90
2019-03-04T06:12:27.126Z,0.73
2019-03-04T06:22:28.087Z,0.40
2019-03-04T06:32:28.852Z,0.50
2019-03-04T06:42:29.778Z,0.60
2019-03-04T06:52:31.906Z,0.57
2019-03-04T07:02:38.796Z,0.50
2019-03-04T07:12:39.575Z,0.50
2019-03-04T07:22:40.499Z,0.53
2019-03-04T07:32:41.404Z,0.60
2019-03-04T07:42:42.371Z,0.63
2019-03-04T07:52:45.287Z,1.03
2019-03-04T08:02:45.956Z,0.40
2019-03-04T08:12:50.801Z,0.30
2019-03-04T08:22:51.899Z,0.20
2019-03-04T08:32:52.878Z,0.20
2019-03-04T08:42:53.516Z,0.00
2019-03-04T08:56:48.838Z,0.20
2019-03-04T09:06:49.333Z,0.53
2019-03-04T09:16:50.920Z,0.20
2019-03-04T09:26:51.725Z,0.20
2019-03-04T09:36:53.283Z,0.30
2019-03-04T09:46:54.142Z,0.50
2019-03-04T09:56:55.004Z,0.27
2019-03-04T10:07:03.247Z,0.77
2019-03-04T10:17:11.718Z,0.80
2019-03-04T10:27:17.489Z,0.50
2019-03-04T10:37:29.214Z,0.60
2019-03-04T10:47:30.067Z,1.17
2019-03-04T10:57:36.664Z,0.70
2019-03-04T11:07:37.460Z,0.50
2019-03-04T11:17:38.269Z,1.73
2019-03-04T11:27:39.038Z,0.50
2019-03-04T11:37:39.575Z,0.40
2019-03-04T11:47:40.394Z,0.40
2019-03-04T11:57:42.146Z,0.23
2019-03-04T12:07:42.999Z,0.43
2019-03-04T12:17:43.809Z,0.47
2019-03-04T12:27:44.573Z,0.30
2019-03-04T12:37:45.225Z,0.27
2019-03-04T12:47:46.050Z,0.40
2019-03-04T12:57:46.925Z,0.40
2019-03-04T13:07:47.434Z,0.10
2019-03-04T13:17:48.201Z,0.30
2019-03-04T13:27:48.980Z,0.20
2019-03-04T13:37:49.772Z,0.20
2019-03-04T13:47:50.323Z,0.10
2019-03-04T13:57:51.269Z,0.20
2019-03-04T14:07:52.072Z,0.10
2019-03-04T14:17:52.694Z,0.23
2019-03-04T14:27:53.261Z,0.13
2019-03-04T14:37:53.808Z,0.10
2019-03-04T14:47:54.686Z,0.10
2019-03-04T14:57:55.563Z,0.10
2019-03-04T15:07:56.050Z,0.10
2019-03-04T15:17:58.746Z,0.10
2019-03-04T15:28:07.811Z,0.20
2019-03-04T15:38:08.840Z,0.40
2019-03-04T15:48:09.617Z,0.50
2019-03-04T15:58:10.553Z,0.40
2019-03-04T16:08:11.296Z,0.60
2019-03-04T16:18:12.175Z,0.70
2019-03-04T16:28:16.992Z,0.60
2019-03-04T16:38:17.877Z,0.53
2019-03-04T16:48:18.524Z,0.63
2019-03-04T16:58:19.309Z,1.00
2019-03-04T17:08:19.838Z,1.00
2019-03-04T17:18:20.598Z,0.80
2019-03-04T17:28:22.286Z,0.60
2019-03-04T17:38:23.077Z,0.60
2019-03-04T17:48:23.632Z,0.67
2019-03-04T17:58:25.474Z,0.50
2019-03-04T18:08:26.750Z,0.60
2019-03-04T18:18:27.557Z,0.60
2019-03-04T18:28:39.142Z,0.73
2019-03-04T18:38:44.629Z,0.70
2019-03-04T18:48:51.168Z,0.60
2019-03-04T18:58:51.914Z,0.83
2019-03-04T19:08:52.415Z,0.50
2019-03-04T19:18:53.021Z,0.70
2019-03-04T19:28:53.615Z,0.73
2019-03-04T19:38:54.179Z,0.60
2019-03-04T19:48:55.058Z,0.37
2019-03-04T19:58:55.590Z,1.17
2019-03-04T20:08:56.643Z,0.80
2019-03-04T20:18:57.490Z,0.50
2019-03-04T20:28:58.353Z,0.60
2019-03-04T20:38:59.129Z,0.67
2019-03-04T20:49:00.066Z,0.77
2019-03-04T20:59:00.918Z,0.90
2019-03-04T21:09:03.614Z,1.37
2019-03-04T21:19:04.351Z,1.00
2019-03-04T21:29:13.199Z,1.40
2019-03-04T21:39:15.888Z,1.30
2019-03-04T21:49:16.526Z,1.07
2019-03-04T21:59:17.190Z,1.00
2019-03-04T22:09:17.877Z,0.90
2019-03-04T22:19:18.537Z,1.20
2019-03-04T22:29:19.336Z,0.87
2019-03-04T22:39:20.134Z,0.70
2019-03-04T22:49:22.732Z,1.13
2019-03-04T22:59:26.389Z,0.80
2019-03-04T23:09:28.913Z,0.47
2019-03-04T23:19:29.735Z,0.60
2019-03-04T23:29:30.372Z,0.40
2019-03-04T23:39:30.917Z,0.40
2019-03-04T23:49:31.436Z,0.40
2019-03-04T23:59:32.262Z,0.40
